Ouray, CO

4:47 AM MDT on August 22, 2014 (GMT -0600)
Montrose Regional | Change Station
CLOSE
Current Station
Airport
Location: Montrose,
Elevation: 5758 ft
Nearby Weather Stations

Elev 5758 ft 38.51 °N, 107.90 °W | Updated 54 minutes ago

Light Rain
Light Rain
60 °F
Feels Like 60 °F
N
8
Wind Variable Wind from SE

Today
High -- | Low -- °F
--% Chance of Precip.
Yesterday
High -- | Low -- °F
Precip. -- in
6:32 AM 7:54 PM
Waning Crescent, 9% visible
Pressure 30.00 in
Visibility 10.0 miles
Clouds Overcast 8000 ft
Dew Point 53 °F
Humidity 78%
Rainfall 0.03 in
Snow Depth 0 in , 0 in
UV 0 out of 12
Pollen 8.90 out of 12
Air Quality Not available.
Flu Activity Not available.
METAR KMTJ 220953Z AUTO 14007KT 110V170 10SM -RA OVC080 16/12 A3023 RMK AO2 SLP158 P0003 T01560117

More Conditions Fewer Conditions

Pressure 30.00 in
Visibility 10.0 miles
Clouds Overcast 8000 ft
Dew Point 53 °F
Humidity 78%
Rainfall 0.03 in
Snow Depth 0 in , 0 in
UV 0 out of 12
Pollen 8.90 out of 12
Air Quality Not available.
Flu Activity Not available.
METAR KMTJ 220953Z AUTO 14007KT 110V170 10SM -RA OVC080 16/12 A3023 RMK AO2 SLP158 P0003 T01560117

More Conditions Fewer Conditions

10-Day Weather Forecast

Almanac

Astronomy

Aug. 22, 2014 Rise Set
Actual Time 6:32 AM MDT 7:54 PM MDT
Civil Twilight 6:04 AM MDT 8:22 PM MDT
Nautical Twilight 5:31 AM MDT 8:55 PM MDT
Astronomical Twilight 4:56 AM MDT 9:29 PM MDT
Moon 3:58 AM MDT 6:04 PM MDT
Length of Visible Light 14h 17m
Length of Day
13h 22m
Tomorrow will be 2m 15s shorter.
Waning Crescent, 9% of the Moon is Illuminated
Today
Waning Crescent
Aug 25
New
Sep 2
First Quarter
Sep 8
Full
Sep 15
Last Quarter

Today's Extremes

State Highs State Lows

Community

WunderPhotos

Upload Photos

1,746,151 photos uploaded!

Nearby

Snow Depth

Station Depth Elevation
Idarado 0 in 9800 ft
Red Mountain Pass 0 in 11150 ft
Mineral Creek 0 in 10040 ft
Molas Lake 0 in 10500 ft
Lizard Head Pass 1 in 10200 ft

Earthquake Activity

City Distance Mag. Time & Date
No recent earthquake activity has been reported nearby.
Minimum magnitude displayed is 2.5.

Coastal Water Temperatures

Place Temperature
No Stations Reporting

Nearby Weather Stations